| time (UTC) | temp F | wind direction | speed knots | gust knots | rain 1hr in | rain 24hr in | rain mn in | humidity % | barometer mb |
| 20260906043103 | 74 | 0 | 0.0 | 0.0 | 0.00 | 0.00 | 0.00 | 89 | 1014.0 |
| 20260906041604 | 74 | 0 | 0.0 | 0.9 | 0.00 | 0.00 | 0.00 | 90 | 1013.7 |
| 20260906034627 | 74 | 0 | 0.0 | 0.0 | 0.00 | 0.00 | 0.00 | 90 | 1014.1 |
| 20260906033102 | 74 | 0 | 0.0 | 0.0 | 0.00 | 0.00 | 0.00 | 91 | 1014.0 |
| 20260906031601 | 74 | 0 | 0.0 | 0.9 | 0.00 | 0.00 | 0.00 | 90 | 1014.0 |
| 20260906024602 | 75 | 0 | 0.0 | 0.9 | 0.00 | 0.00 | 0.00 | 90 | 1014.1 |
| 20260906023101 | 74 | 0 | 0.0 | 0.0 | 0.00 | 0.00 | 0.00 | 90 | 1014.2 |
| 20260906021611 | 75 | 0 | 0.0 | 1.7 | 0.00 | 0.00 | 0.00 | 90 | 1014.0 |
| 20260906020116 | 74 | 0 | 0.0 | 1.7 | 0.00 | 0.00 | 0.00 | 90 | 1014.0 |
| 20260906014559 | 75 | 200 | 0.0 | 1.7 | 0.00 | 0.00 | 0.00 | 89 | 1013.7 |
| 20260906013108 | 75 | 0 | 0.0 | 0.0 | 0.00 | 0.00 | 0.00 | 88 | 1013.6 |
| 20260906011604 | 75 | 0 | 0.0 | 0.9 | 0.00 | 0.00 | 0.00 | 87 | 1013.6 |
| 20260906010104 | 76 | 0 | 0.0 | 0.9 | 0.00 | 0.00 | 0.00 | 87 | 1013.5 |
| 20260906004603 | 76 | 0 | 0.0 | 0.0 | 0.00 | 0.00 | 0.00 | 86 | 1013.3 |
| 20260906003102 | 76 | 0 | 0.0 | 0.0 | 0.00 | 0.00 | 0.00 | 85 | 1013.1 |
| 20260906001604 | 77 | 0 | 0.0 | 0.9 | 0.00 | 0.00 | 0.00 | 84 | 1013.0 |
| 20260906000109 | 78 | 0 | 0.0 | 1.7 | 0.00 | 0.00 | 0.00 | 82 | 1013.0 |
| 20260905234621 | 78 | 0 | 0.0 | 0.9 | 0.00 | 0.00 | 0.00 | 80 | 1012.8 |
| 20260905233101 | 79 | 0 | 0.0 | 1.7 | 0.00 | 0.00 | 0.00 | 78 | 1012.7 |
| 20260905231615 | 80 | 0 | 0.0 | 0.0 | 0.00 | 0.00 | 0.00 | 75 | 1012.7 |
| 20260905230120 | 81 | 0 | 0.0 | 0.9 | 0.00 | 0.00 | 0.00 | 76 | 1012.8 |
| 20260905224612 | 81 | 0 | 0.0 | 0.9 | 0.00 | 0.00 | 0.00 | 76 | 1012.8 |
| 20260905223120 | 81 | 0 | 0.0 | 0.9 | 0.00 | 0.00 | 0.00 | 76 | 1012.9 |
| 20260905221602 | 81 | 0 | 0.0 | 2.6 | 0.00 | 0.00 | 0.00 | 77 | 1012.7 |
| 20260905220121 | 81 | 5 | 0.0 | 1.7 | 0.00 | 0.00 | 0.00 | 77 | 1012.9 |
| 20260905214623 | 81 | 0 | 0.0 | 0.9 | 0.00 | 0.00 | 0.00 | 78 | 1013.1 |
| 20260905213119 | 80 | 0 | 0.0 | 0.9 | 0.00 | 0.00 | 0.00 | 79 | 1013.1 |
| 20260905211620 | 80 | 0 | 0.0 | 2.6 | 0.00 | 0.00 | 0.00 | 79 | 1013.6 |
| 20260905210114 | 79 | 0 | 0.0 | 0.9 | 0.00 | 0.00 | 0.00 | 82 | 1013.7 |
| 20260905204607 | 80 | 57 | 0.9 | 4.3 | 0.00 | 0.00 | 0.00 | 82 | 1013.9 |
| 20260905203111 | 81 | 271 | 0.0 | 2.6 | 0.00 | 0.00 | 0.00 | 79 | 1013.3 |
| 20260905201603 | 79 | 0 | 0.9 | 2.6 | 0.00 | 0.00 | 0.00 | 80 | 1013.2 |
| 20260905200108 | 79 | 0 | 0.9 | 3.5 | 0.00 | 0.00 | 0.00 | 80 | 1013.2 |
| 20260905194600 | 80 | 0 | 0.0 | 3.5 | 0.00 | 0.00 | 0.00 | 75 | 1013.5 |
| 20260905193105 | 81 | 15 | 1.7 | 11.3 | 0.00 | 0.00 | 0.00 | 72 | 1013.3 |
| 20260905191612 | 89 | 310 | 3.5 | 10.4 | 0.00 | 0.00 | 0.00 | 56 | 1014.2 |
| 20260905184616 | 93 | 337 | 0.0 | 1.7 | 0.00 | 0.00 | 0.00 | 56 | 1013.3 |
| 20260905183104 | 94 | 0 | 0.0 | 1.7 | 0.00 | 0.00 | 0.00 | 51 | 1012.9 |
| 20260905181610 | 96 | 325 | 0.0 | 2.6 | 0.00 | 0.00 | 0.00 | 49 | 1013.2 |
| 20260905180108 | 98 | 0 | 0.0 | 2.6 | 0.00 | 0.00 | 0.00 | 46 | 1013.5 |
| 20260905174606 | 96 | 0 | 0.9 | 2.6 | 0.00 | 0.00 | 0.00 | 50 | 1013.7 |
| 20260905173104 | 97 | 104 | 0.0 | 1.7 | 0.00 | 0.00 | 0.00 | 50 | 1013.9 |
| 20260905171635 | 96 | 45 | 0.0 | 4.3 | 0.00 | 0.00 | 0.00 | 51 | 1014.3 |
| 20260905170107 | 96 | 298 | 0.0 | 3.5 | 0.00 | 0.00 | 0.00 | 59 | 1014.5 |
| 20260905164605 | 95 | 133 | 0.0 | 3.5 | 0.00 | 0.00 | 0.00 | 56 | 1014.7 |
| 20260905163108 | 96 | 5 | 0.0 | 2.6 | 0.00 | 0.00 | 0.00 | 59 | 1014.8 |
| 20260905161605 | 95 | 5 | 0.0 | 2.6 | 0.00 | 0.00 | 0.00 | 56 | 1015.0 |
| 20260905160111 | 94 | 0 | 0.0 | 2.6 | 0.00 | 0.00 | 0.00 | 61 | 1015.0 |
| 20260905154646 | 93 | 95 | 0.0 | 2.6 | 0.00 | 0.00 | 0.00 | 60 | 1015.2 |
| 20260905153104 | 94 | 5 | 0.0 | 2.6 | 0.00 | 0.00 | 0.00 | 60 | 1015.2 |
| 20260905151602 | 92 | 190 | 0.0 | 2.6 | 0.00 | 0.00 | 0.00 | 63 | 1015.3 |
| 20260905150109 | 92 | 0 | 0.0 | 3.5 | 0.00 | 0.00 | 0.00 | 64 | 1015.3 |
| 20260905144610 | 92 | 249 | 0.0 | 1.7 | 0.00 | 0.00 | 0.00 | 66 | 1015.4 |
| 20260905143107 | 90 | 211 | 0.9 | 3.5 | 0.00 | 0.00 | 0.00 | 68 | 1015.4 |
| 20260905141605 | 89 | 192 | 0.0 | 1.7 | 0.00 | 0.00 | 0.00 | 71 | 1015.4 |
| 20260905140108 | 87 | 0 | 0.0 | 2.6 | 0.00 | 0.00 | 0.00 | 73 | 1015.6 |
| 20260905134608 | 86 | 204 | 0.0 | 1.7 | 0.00 | 0.00 | 0.00 | 76 | 1015.6 |
| 20260905133107 | 85 | 0 | 0.0 | 0.9 | 0.00 | 0.00 | 0.00 | 79 | 1015.8 |
| 20260905131603 | 83 | 0 | 0.0 | 2.6 | 0.00 | 0.00 | 0.00 | 81 | 1015.8 |
| 20260905124603 | 80 | 0 | 0.0 | 0.0 | 0.00 | 0.00 | 0.00 | 85 | 1015.6 |
| 20260905123103 | 78 | 0 | 0.0 | 0.0 | 0.00 | 0.00 | 0.00 | 87 | 1015.5 |
| 20260905121608 | 77 | 0 | 0.0 | 0.0 | 0.00 | 0.00 | 0.00 | 89 | 1015.6 |
| 20260905120104 | 76 | 0 | 0.0 | 0.0 | 0.00 | 0.00 | 0.00 | 91 | 1015.5 |
| 20260905114609 | 75 | 0 | 0.0 | 0.0 | 0.00 | 0.00 | 0.00 | 91 | 1015.5 |
| 20260905113100 | 74 | 0 | 0.0 | 0.0 | 0.00 | 0.00 | 0.00 | 91 | 1015.1 |
| 20260905111629 | 74 | 0 | 0.0 | 0.0 | 0.00 | 0.00 | 0.00 | 91 | 1014.9 |
| 20260905110112 | 74 | 0 | 0.0 | 0.0 | 0.00 | 0.00 | 0.00 | 91 | 1014.7 |
| 20260905104619 | 75 | 0 | 0.0 | 0.0 | 0.00 | 0.00 | 0.00 | 90 | 1014.6 |
| 20260905103102 | 75 | 0 | 0.0 | 0.0 | 0.00 | 0.00 | 0.00 | 90 | 1014.4 |
| 20260905101605 | 75 | 0 | 0.0 | 0.0 | 0.00 | 0.00 | 0.00 | 90 | 1014.2 |
| 20260905100104 | 75 | 0 | 0.0 | 0.9 | 0.00 | 0.00 | 0.00 | 89 | 1014.2 |
| 20260905094719 | 75 | 0 | 0.0 | 0.9 | 0.00 | 0.00 | 0.00 | 89 | 1014.1 |
| 20260905093131 | 75 | 0 | 0.0 | 0.9 | 0.00 | 0.00 | 0.00 | 89 | 1014.0 |
| 20260905091604 | 75 | 0 | 0.0 | 1.7 | 0.00 | 0.00 | 0.00 | 89 | 1014.3 |
| 20260905090104 | 75 | 0 | 0.0 | 0.0 | 0.00 | 0.00 | 0.00 | 88 | 1014.3 |
| 20260905084607 | 75 | 0 | 0.0 | 0.9 | 0.00 | 0.00 | 0.00 | 88 | 1014.4 |
| 20260905083103 | 76 | 205 | 0.0 | 1.7 | 0.00 | 0.00 | 0.00 | 88 | 1014.5 |
| 20260905081605 | 75 | 0 | 0.0 | 0.0 | 0.00 | 0.00 | 0.00 | 88 | 1014.6 |
| 20260905080121 | 75 | 0 | 0.0 | 0.9 | 0.00 | 0.00 | 0.00 | 88 | 1014.8 |
| 20260905074606 | 75 | 0 | 0.0 | 0.0 | 0.00 | 0.00 | 0.00 | 87 | 1014.8 |
| 20260905073111 | 76 | 0 | 0.0 | 0.9 | 0.00 | 0.00 | 0.00 | 86 | 1015.0 |
| 20260905071603 | 76 | 0 | 0.0 | 0.0 | 0.00 | 0.00 | 0.00 | 85 | 1015.1 |
| 20260905070100 | 77 | 0 | 0.0 | 0.0 | 0.00 | 0.00 | 0.00 | 84 | 1015.2 |
| 20260905064608 | 78 | 0 | 0.0 | 1.7 | 0.00 | 0.00 | 0.00 | 82 | 1015.4 |
| 20260905063103 | 78 | 225 | 0.0 | 0.9 | 0.00 | 0.00 | 0.00 | 82 | 1015.4 |
| 20260905061607 | 78 | 0 | 0.0 | 0.9 | 0.00 | 0.00 | 0.00 | 81 | 1015.6 |
| 20260905060109 | 79 | 0 | 0.0 | 1.7 | 0.00 | 0.00 | 0.00 | 80 | 1015.7 |
| 20260905054608 | 78 | 0 | 0.0 | 0.0 | 0.00 | 0.00 | 0.00 | 81 | 1015.8 |
| 20260905053104 | 78 | 0 | 0.0 | 0.0 | 0.00 | 0.00 | 0.00 | 82 | 1015.8 |
| 20260905051610 | 79 | 0 | 0.0 | 0.0 | 0.00 | 0.00 | 0.00 | 80 | 1015.8 |
| 20260905050107 | 79 | 0 | 0.0 | 0.0 | 0.00 | 0.00 | 0.00 | 79 | 1015.7 |
| 20260905044605 | 79 | 0 | 0.0 | 0.9 | 0.00 | 0.00 | 0.00 | 80 | 1015.8 |